Evesboro, New Jersey
Current Conditions -  °F | °C
As of 11:54 AM on Tuesday 27 Jan 2015 (Local Time) from KVAY Reporting Station
Light Snow Light Snow  
Wind Chill: 17°   Ceiling: 2000
Heat Index: 27°   Visibility: 3mi
Dew Point: 21°   Wind: 12mph
Humidity: 78%   Direction: 330°NNW
Pressure: 29.72"   Gusts: 18mph
Location:  39.8786°N, 74.8969°W
Report Text: KVAY 271654Z AUTO 33010G16KT 290V360 3SM -SN SCT015 BKN020 OVC028 M03/M06 A2972 RMK AO2 SLP064 P0000 T10281061
Loading
Personal Weather Stations






























Interactive Weather Map New forecast layout! Learn more

10-Day Weather Forecast

Advertisements
Track Severe Weather on mobile